Time;durP1;ratioP1;P1;durP2;ratioP2;P2;SDS_P1;SDS_P2;PMS_P1;PMS_P2;Temp;Humidity;BMP_temperature;BMP_pressure;BME280_temperature;BME280_humidity;BME280_pressure;Samples;Min_cycle;Max_cycle;Signal;HPM_P1;HPM_P2
2023/12/10 00:00:00;;;;;;;31.08;17.13;;;;;;;3.04;93.57;100086.78;5122991;27;20048;-63
2023/12/10 00:02:26;;;;;;;27.15;15.57;;;;;;;3.14;93.45;100090.47;5132039;27;20027;-63
2023/12/10 00:04:51;;;;;;;27.83;13.27;;;;;;;3.47;92.60;100100.34;5131941;27;20035;-63
2023/12/10 00:07:17;;;;;;;18.98;10.98;;;;;;;3.71;91.54;100097.78;5133138;27;20042;-63
2023/12/10 00:09:42;;;;;;;17.50;9.95;;;;;;;3.93;90.30;100097.91;5122703;27;20254;-63
2023/12/10 00:12:08;;;;;;;23.77;10.85;;;;;;;4.11;88.96;100093.94;5139581;27;20035;-64
2023/12/10 00:14:33;;;;;;;20.80;10.52;;;;;;;4.24;88.37;100096.53;5124003;27;20059;-63
2023/12/10 00:16:59;;;;;;;21.75;10.13;;;;;;;4.31;87.96;100100.34;5132416;27;20043;-63
2023/12/10 00:19:24;;;;;;;17.25;9.70;;;;;;;4.28;87.60;100097.13;5132280;27;20046;-63
2023/12/10 00:21:49;;;;;;;16.60;9.30;;;;;;;4.30;87.35;100105.72;5113771;27;20039;-63
2023/12/10 00:24:15;;;;;;;20.17;10.43;;;;;;;4.25;86.92;100102.59;5132949;27;20046;-63
2023/12/10 00:26:40;;;;;;;19.88;10.45;;;;;;;4.24;87.26;100114.03;5132518;27;20053;-63
2023/12/10 00:29:06;;;;;;;15.93;9.10;;;;;;;4.39;86.49;100111.13;5132782;27;20038;-64
2023/12/10 00:31:31;;;;;;;19.50;9.80;;;;;;;4.43;86.37;100115.19;5132782;27;20050;-64
2023/12/10 00:33:57;;;;;;;21.80;10.52;;;;;;;4.22;86.55;100101.03;5124663;27;20039;-63
2023/12/10 00:36:22;;;;;;;18.85;10.45;;;;;;;4.21;85.72;100103.78;5122207;27;20402;-64
2023/12/10 00:38:48;;;;;;;21.60;11.38;;;;;;;4.36;85.26;100107.88;5128519;27;20046;-63
2023/12/10 00:41:14;;;;;;;20.23;12.00;;;;;;;4.35;85.54;100100.97;5132288;27;20031;-64
2023/12/10 00:43:40;;;;;;;21.85;12.15;;;;;;;3.96;86.70;100097.69;5132270;27;20071;-63
2023/12/10 00:46:06;;;;;;;17.52;10.80;;;;;;;3.84;86.95;100098.56;5131954;27;20035;-64
2023/12/10 00:48:33;;;;;;;19.10;11.77;;;;;;;3.69;87.16;100095.25;5132743;27;20061;-64
2023/12/10 00:50:58;;;;;;;18.65;9.68;;;;;;;3.42;88.36;100098.06;5126303;27;20366;-64
2023/12/10 00:53:24;;;;;;;20.20;10.25;;;;;;;3.34;89.06;100103.00;5131627;27;20035;-64
2023/12/10 00:55:49;;;;;;;23.38;11.80;;;;;;;3.39;88.78;100093.03;5131906;27;20225;-64
2023/12/10 00:58:15;;;;;;;15.73;9.65;;;;;;;3.46;88.59;100091.66;5131995;27;20028;-64
2023/12/10 01:00:41;;;;;;;16.40;9.10;;;;;;;3.58;88.24;100094.34;5132990;27;20325;-64
2023/12/10 01:03:07;;;;;;;17.88;9.40;;;;;;;3.77;87.74;100095.56;5132560;27;20059;-63
2023/12/10 01:05:32;;;;;;;17.95;8.98;;;;;;;3.95;86.91;100103.03;5132580;27;20081;-63
2023/12/10 01:07:58;;;;;;;16.40;10.00;;;;;;;4.08;86.13;100093.31;5132491;27;20035;-64
2023/12/10 01:10:24;;;;;;;20.30;10.15;;;;;;;4.15;85.41;100091.94;5131237;27;20232;-64
2023/12/10 01:12:50;;;;;;;16.27;9.30;;;;;;;4.29;84.74;100091.78;5123059;27;20081;-64
2023/12/10 01:15:16;;;;;;;17.48;10.00;;;;;;;4.41;84.31;100076.91;5124877;27;20320;-63
2023/12/10 01:17:42;;;;;;;20.10;10.30;;;;;;;4.46;84.01;100085.28;5131697;27;20031;-64
2023/12/10 01:20:08;;;;;;;21.10;9.88;;;;;;;4.57;83.01;100085.31;5131641;27;20084;-63
2023/12/10 01:22:33;;;;;;;16.40;9.70;;;;;;;4.60;82.41;100079.81;5131675;27;20059;-64
2023/12/10 01:25:00;;;;;;;18.20;9.02;;;;;;;4.60;81.97;100068.50;5127417;27;20233;-64
2023/12/10 01:27:26;;;;;;;18.08;9.88;;;;;;;4.70;81.65;100083.44;5128388;27;20065;-64
2023/12/10 01:29:52;;;;;;;16.48;8.98;;;;;;;4.71;80.90;100073.78;5131907;27;20325;-64
2023/12/10 01:32:18;;;;;;;16.13;9.30;;;;;;;4.73;80.82;100072.69;5132526;27;20053;-64
2023/12/10 01:34:44;;;;;;;17.88;9.60;;;;;;;4.66;80.27;100082.00;5131901;27;20328;-64
2023/12/10 01:37:09;;;;;;;17.55;9.30;;;;;;;4.61;80.85;100078.03;5131572;27;20038;-64
2023/12/10 01:39:35;;;;;;;21.15;10.10;;;;;;;4.62;81.34;100074.47;5131193;27;20050;-64
2023/12/10 01:42:01;;;;;;;21.65;11.50;;;;;;;4.63;81.38;100073.50;5131924;27;20048;-63
2023/12/10 01:44:27;;;;;;;17.33;10.77;;;;;;;4.67;81.41;100072.31;5131404;27;20046;-63
2023/12/10 01:46:55;;;;;;;20.13;10.20;;;;;;;4.72;81.15;100067.56;5131968;27;20031;-64
2023/12/10 01:49:23;;;;;;;19.75;10.10;;;;;;;4.73;81.14;100061.38;5130959;27;20088;-64
2023/12/10 01:51:49;;;;;;;22.45;11.65;;;;;;;4.76;80.55;100069.00;5122731;27;20039;-63
2023/12/10 01:54:24;;;;;;;19.92;11.25;;;;;;;4.77;80.95;100060.19;5131633;27;20352;-63
2023/12/10 01:56:50;;;;;;;27.17;13.70;;;;;;;4.76;80.63;100051.47;5130507;27;20177;-63
2023/12/10 01:59:19;;;;;;;24.83;14.05;;;;;;;4.78;80.81;100043.50;5129751;27;20383;-65
2023/12/10 02:01:48;;;;;;;20.67;11.25;;;;;;;4.78;80.70;100038.25;5130798;27;20043;-65
2023/12/10 02:04:17;;;;;;;23.13;13.02;;;;;;;4.76;81.27;100034.91;5130208;27;20111;-66
2023/12/10 02:06:43;;;;;;;21.65;13.30;;;;;;;4.78;80.75;100035.63;5120205;27;20057;-66
2023/12/10 02:09:10;;;;;;;23.58;13.23;;;;;;;4.73;81.09;100035.97;5120101;27;20145;-65
2023/12/10 02:11:36;;;;;;;22.00;13.18;;;;;;;4.54;81.87;100040.13;5130071;27;20036;-66
2023/12/10 02:14:03;;;;;;;25.75;13.63;;;;;;;4.41;82.68;100042.84;5121220;28;20050;-63
2023/12/10 02:16:28;;;;;;;25.25;15.45;;;;;;;4.41;82.82;100035.81;5120760;27;20027;-66
2023/12/10 02:18:54;;;;;;;34.10;22.40;;;;;;;4.46;82.20;100027.59;5129830;27;20043;-64
2023/12/10 02:21:19;;;;;;;48.20;28.42;;;;;;;4.41;82.26;100029.72;5129601;28;20038;-66
2023/12/10 02:24:04;;;;;;;25.65;15.30;;;;;;;4.45;82.36;100025.91;5129671;27;20046;-66
2023/12/10 02:26:31;;;;;;;19.45;11.02;;;;;;;4.44;82.01;100022.47;5119787;27;20351;-66
2023/12/10 02:28:57;;;;;;;19.73;13.02;;;;;;;4.36;81.54;100024.00;5127073;28;20042;-66
2023/12/10 02:31:24;;;;;;;19.48;12.52;;;;;;;4.26;81.82;100023.84;5129844;27;20237;-63
2023/12/10 02:33:50;;;;;;;17.73;10.73;;;;;;;4.29;81.55;100031.47;5129939;28;20026;-63
2023/12/10 02:36:15;;;;;;;24.40;13.23;;;;;;;4.36;82.36;100029.22;5130269;28;20385;-64
2023/12/10 02:38:43;;;;;;;23.48;13.68;;;;;;;4.33;82.28;100017.19;5132798;27;20329;-63
2023/12/10 02:41:09;;;;;;;23.02;12.77;;;;;;;4.45;82.63;100039.88;5133587;27;20094;-63
2023/12/10 02:43:34;;;;;;;20.42;12.43;;;;;;;4.51;82.04;100037.72;5132476;27;20031;-63
2023/12/10 02:46:00;;;;;;;23.98;11.95;;;;;;;4.53;81.51;100034.03;5133709;27;20031;-63
2023/12/10 02:48:25;;;;;;;18.60;10.95;;;;;;;4.48;81.79;100036.19;5134049;27;20079;-63
2023/12/10 02:50:51;;;;;;;21.25;11.48;;;;;;;4.48;82.22;100023.91;5133604;27;20317;-63
2023/12/10 02:53:17;;;;;;;19.17;9.95;;;;;;;4.49;81.77;100030.81;5133589;27;20117;-63
2023/12/10 02:55:43;;;;;;;21.55;10.75;;;;;;;4.51;81.61;100037.72;5134552;27;20035;-64
2023/12/10 02:58:09;;;;;;;25.13;13.48;;;;;;;4.48;81.47;100037.00;5134960;27;20030;-63
2023/12/10 03:00:34;;;;;;;22.65;12.13;;;;;;;4.43;81.62;100033.06;5135078;27;20378;-63
2023/12/10 03:03:00;;;;;;;19.83;11.35;;;;;;;4.41;81.89;100038.44;5134924;27;20035;-64
2023/12/10 03:05:26;;;;;;;21.17;12.13;;;;;;;4.48;81.94;100039.63;5135412;27;20225;-64
2023/12/10 03:07:52;;;;;;;17.17;11.00;;;;;;;4.51;81.59;100035.09;5135853;27;20027;-63
2023/12/10 03:10:18;;;;;;;18.50;10.48;;;;;;;4.51;81.63;100041.19;5134936;27;20336;-64
2023/12/10 03:12:43;;;;;;;21.40;11.73;;;;;;;4.46;82.35;100046.78;5135262;27;20064;-63
2023/12/10 03:15:09;;;;;;;26.75;14.60;;;;;;;4.57;82.12;100060.88;5116791;27;20344;-63
2023/12/10 03:17:34;;;;;;;24.05;15.13;;;;;;;4.63;81.70;100063.03;5135117;27;20133;-64
2023/12/10 03:19:59;;;;;;;24.77;15.30;;;;;;;4.63;81.63;100071.72;5134488;27;20550;-64
2023/12/10 03:22:25;;;;;;;21.30;12.45;;;;;;;4.59;82.08;100080.78;5135299;27;20046;-63
2023/12/10 03:24:50;;;;;;;20.02;11.10;;;;;;;4.51;82.68;100082.31;5134722;27;20031;-64
2023/12/10 03:27:16;;;;;;;17.80;10.38;;;;;;;4.16;83.83;100083.13;5133839;27;20041;-63
2023/12/10 03:29:41;;;;;;;20.17;10.15;;;;;;;3.98;85.03;100087.91;5134348;27;20245;-63
2023/12/10 03:32:07;;;;;;;21.17;11.40;;;;;;;4.02;85.18;100084.13;5133578;27;20352;-63
2023/12/10 03:34:32;;;;;;;20.85;11.77;;;;;;;4.07;84.92;100089.03;5134534;27;20046;-63
2023/12/10 03:36:58;;;;;;;17.20;10.13;;;;;;;4.03;85.33;100090.22;5135260;27;20030;-63
2023/12/10 03:39:23;;;;;;;15.45;9.35;;;;;;;3.87;86.03;100089.66;5134494;27;20054;-64
2023/12/10 03:41:49;;;;;;;18.33;9.68;;;;;;;3.74;87.09;100087.06;5135177;27;20039;-65
2023/12/10 03:44:15;;;;;;;17.73;11.00;;;;;;;3.82;87.50;100092.59;5134841;27;20104;-64
2023/12/10 03:46:40;;;;;;;17.58;10.02;;;;;;;3.98;86.43;100092.31;5138130;27;20035;-63
2023/12/10 03:49:08;;;;;;;22.63;9.60;;;;;;;3.97;86.48;100090.66;5137401;27;20038;-64
2023/12/10 03:51:34;;;;;;;19.95;10.48;;;;;;;4.03;86.62;100085.81;5136319;27;20027;-64
2023/12/10 03:54:00;;;;;;;16.92;10.20;;;;;;;4.03;86.42;100064.00;5138080;27;20063;-64
2023/12/10 03:56:26;;;;;;;20.70;12.23;;;;;;;4.21;85.72;100067.09;5138202;27;20058;-64
2023/12/10 03:58:51;;;;;;;20.70;11.63;;;;;;;4.33;85.44;100069.63;5138317;27;20417;-63
2023/12/10 04:01:17;;;;;;;19.08;12.88;;;;;;;4.44;84.89;100063.56;5137652;27;20037;-63
2023/12/10 04:03:43;;;;;;;20.60;12.13;;;;;;;4.54;85.09;100061.09;5137400;27;20224;-63
2023/12/10 04:06:09;;;;;;;20.75;11.05;;;;;;;4.57;84.05;100058.25;5138395;27;20080;-63
2023/12/10 04:08:34;;;;;;;20.92;10.82;;;;;;;4.48;84.42;100065.03;5135703;27;20328;-65
2023/12/10 04:10:59;;;;;;;18.67;10.32;;;;;;;4.23;85.11;100062.56;5137503;27;20046;-63
2023/12/10 04:13:25;;;;;;;19.45;10.35;;;;;;;4.16;86.04;100056.91;5138120;27;20034;-63
2023/12/10 04:15:51;;;;;;;18.50;10.10;;;;;;;4.02;86.68;100051.84;5137601;27;20270;-63
2023/12/10 04:18:16;;;;;;;16.45;9.75;;;;;;;3.96;86.52;100047.91;5137491;27;20032;-63
2023/12/10 04:20:43;;;;;;;16.52;9.68;;;;;;;3.77;87.65;100048.41;5137946;27;20343;-63
2023/12/10 04:23:08;;;;;;;17.40;9.23;;;;;;;3.58;88.74;100045.44;5137573;27;20023;-63
2023/12/10 04:25:34;;;;;;;18.92;11.05;;;;;;;3.37;90.42;100060.91;5138654;27;20043;-63
2023/12/10 04:27:59;;;;;;;16.30;9.93;;;;;;;3.19;91.01;100060.41;5137187;27;20035;-64
2023/12/10 04:30:26;;;;;;;20.13;10.18;;;;;;;3.02;92.30;100058.09;5136468;27;20058;-63
2023/12/10 04:32:52;;;;;;;19.15;10.18;;;;;;;3.06;92.30;100064.81;5137135;27;20054;-64
2023/12/10 04:35:18;;;;;;;20.73;9.88;;;;;;;2.91;93.68;100058.00;5137791;27;20080;-63
2023/12/10 04:37:43;;;;;;;19.50;10.73;;;;;;;3.04;93.51;100058.84;5134577;27;20031;-63
2023/12/10 04:40:10;;;;;;;20.15;11.00;;;;;;;3.31;93.37;100063.94;5136772;27;20053;-63
2023/12/10 04:42:36;;;;;;;15.63;8.93;;;;;;;3.47;92.37;100064.53;5137140;27;20073;-64
2023/12/10 04:45:02;;;;;;;20.08;9.90;;;;;;;3.56;91.68;100049.94;5136603;27;20117;-63
2023/12/10 04:47:27;;;;;;;18.45;9.30;;;;;;;3.68;90.52;100061.31;5137600;27;20027;-64
2023/12/10 04:49:54;;;;;;;19.42;10.30;;;;;;;3.87;89.50;100069.53;5136473;27;20043;-63
2023/12/10 04:52:20;;;;;;;22.25;10.20;;;;;;;3.99;88.63;100057.31;5136600;27;20030;-64
2023/12/10 04:54:45;;;;;;;22.95;12.60;;;;;;;4.10;88.15;100055.56;5136461;27;20036;-63
2023/12/10 04:57:10;;;;;;;25.80;12.88;;;;;;;4.25;87.38;100060.66;5136851;27;20031;-63
2023/12/10 04:59:36;;;;;;;25.42;12.70;;;;;;;4.28;87.23;100068.28;5135753;27;20346;-63
2023/12/10 05:02:01;;;;;;;24.90;12.00;;;;;;;4.36;87.18;100066.78;5136678;27;20051;-63
2023/12/10 05:04:27;;;;;;;28.05;13.93;;;;;;;4.40;86.87;100075.25;5135978;27;20026;-63
2023/12/10 05:06:52;;;;;;;25.33;14.20;;;;;;;4.30;86.80;100066.41;5135875;27;20244;-63
2023/12/10 05:09:18;;;;;;;23.77;12.23;;;;;;;4.42;86.25;100073.34;5134825;27;20035;-64
2023/12/10 05:11:43;;;;;;;27.08;12.63;;;;;;;4.23;87.02;100070.41;5136210;27;20081;-64
2023/12/10 05:14:09;;;;;;;29.33;15.98;;;;;;;3.87;88.54;100072.16;5136937;27;20035;-64
2023/12/10 05:16:34;;;;;;;26.05;14.48;;;;;;;3.89;89.18;100064.16;5136315;27;20023;-63
2023/12/10 05:19:00;;;;;;;25.85;14.80;;;;;;;3.75;90.11;100075.66;5136493;27;20312;-63
2023/12/10 05:21:25;;;;;;;29.85;14.07;;;;;;;3.80;90.42;100082.22;5137121;27;20034;-63
2023/12/10 05:23:51;;;;;;;28.92;15.77;;;;;;;4.02;89.92;100076.28;5135198;27;20032;-63
2023/12/10 05:26:16;;;;;;;26.40;13.88;;;;;;;4.14;88.71;100075.38;5136039;27;20023;-63
2023/12/10 05:28:41;;;;;;;30.05;13.88;;;;;;;4.24;88.59;100075.56;5136518;27;20035;-64
2023/12/10 05:31:07;;;;;;;27.73;14.02;;;;;;;4.35;88.59;100090.47;5135311;27;20066;-65
2023/12/10 05:33:33;;;;;;;22.98;12.93;;;;;;;4.38;87.63;100095.50;5136918;27;20060;-64
2023/12/10 05:35:59;;;;;;;27.13;12.35;;;;;;;4.38;87.83;100092.88;5136476;27;20071;-63
2023/12/10 05:38:25;;;;;;;21.48;12.15;;;;;;;4.45;87.08;100094.94;5137270;27;20026;-64
2023/12/10 05:40:51;;;;;;;21.20;12.63;;;;;;;4.38;87.27;100091.09;5136485;27;20028;-64
2023/12/10 05:43:16;;;;;;;25.50;12.65;;;;;;;4.48;87.51;100089.47;5136196;27;20099;-63
2023/12/10 05:45:42;;;;;;;19.80;10.80;;;;;;;4.58;86.82;100094.00;5138200;27;20081;-63
2023/12/10 05:48:07;;;;;;;24.25;11.82;;;;;;;4.55;86.77;100097.69;5135984;27;20034;-63
2023/12/10 05:50:33;;;;;;;25.98;11.95;;;;;;;4.59;86.50;100096.50;5135809;27;20069;-63
2023/12/10 05:52:58;;;;;;;24.13;10.95;;;;;;;4.59;86.60;100093.91;5136080;27;20027;-63
2023/12/10 05:55:24;;;;;;;27.02;11.55;;;;;;;4.63;86.76;100092.72;5135881;27;20035;-64
2023/12/10 05:57:50;;;;;;;26.95;11.65;;;;;;;4.72;87.17;100097.25;5135885;27;20035;-63
2023/12/10 06:00:16;;;;;;;29.92;12.55;;;;;;;4.73;87.11;100093.69;5135828;27;20065;-64
2023/12/10 06:02:42;;;;;;;32.80;13.68;;;;;;;4.75;86.79;100083.91;5135917;27;20023;-63
2023/12/10 06:05:07;;;;;;;35.60;13.80;;;;;;;4.72;86.39;100089.38;5135456;27;20091;-64
2023/12/10 06:07:33;;;;;;;34.13;14.25;;;;;;;4.72;87.20;100086.75;5134349;27;20035;-63
2023/12/10 06:09:59;;;;;;;33.40;13.68;;;;;;;4.72;86.85;100085.94;5134431;27;20046;-64
2023/12/10 06:12:24;;;;;;;42.75;16.13;;;;;;;4.75;87.13;100088.31;5135173;27;20050;-63
2023/12/10 06:14:50;;;;;;;32.78;15.10;;;;;;;4.71;87.65;100086.88;5135039;27;20038;-64
2023/12/10 06:17:15;;;;;;;36.92;13.80;;;;;;;4.77;86.73;100091.66;5134755;27;20042;-63
2023/12/10 06:19:41;;;;;;;40.17;18.20;;;;;;;4.78;87.47;100096.78;5134062;27;20050;-63
2023/12/10 06:22:06;;;;;;;40.33;16.73;;;;;;;4.69;87.62;100094.88;5134279;27;20080;-63
2023/12/10 06:24:32;;;;;;;44.83;19.27;;;;;;;4.73;87.58;100096.31;5134889;27;20065;-64
2023/12/10 06:26:57;;;;;;;47.65;17.92;;;;;;;4.76;87.77;100087.38;5134604;27;20038;-63
2023/12/10 06:29:23;;;;;;;34.40;16.02;;;;;;;4.70;87.51;100088.66;5133833;27;20042;-64
2023/12/10 06:31:49;;;;;;;36.00;14.00;;;;;;;4.66;87.77;100091.66;5134473;27;20034;-63
2023/12/10 06:34:14;;;;;;;37.13;12.70;;;;;;;4.65;88.03;100092.59;5134771;27;20405;-63
2023/12/10 06:36:40;;;;;;;38.85;14.48;;;;;;;4.56;88.23;100086.25;5135030;27;20442;-63
2023/12/10 06:39:06;;;;;;;38.35;14.38;;;;;;;4.44;89.00;100088.00;5134165;27;20035;-63
2023/12/10 06:41:32;;;;;;;35.15;15.70;;;;;;;4.38;89.76;100088.47;5134924;27;20091;-63
2023/12/10 06:43:57;;;;;;;35.35;14.75;;;;;;;4.36;89.47;100085.13;5135034;27;20047;-63
2023/12/10 06:46:23;;;;;;;34.05;14.00;;;;;;;4.21;89.56;100088.88;5135381;27;20031;-63
2023/12/10 06:48:48;;;;;;;38.42;14.13;;;;;;;4.17;90.20;100084.81;5135034;27;20500;-63
2023/12/10 06:51:14;;;;;;;34.38;14.13;;;;;;;4.04;90.43;100104.97;5134727;27;20035;-63
2023/12/10 06:53:40;;;;;;;39.70;15.93;;;;;;;4.01;91.08;100105.19;5136428;27;20043;-64
2023/12/10 06:56:07;;;;;;;38.75;14.63;;;;;;;4.08;91.58;100120.38;5136366;27;20344;-63
2023/12/10 06:58:33;;;;;;;36.75;14.90;;;;;;;4.26;91.17;100112.13;5136223;27;20224;-63
2023/12/10 07:00:59;;;;;;;35.63;15.73;;;;;;;4.38;90.64;100112.06;5135125;27;20062;-64
2023/12/10 07:03:24;;;;;;;33.75;14.90;;;;;;;4.34;90.52;100113.25;5136338;27;20042;-63
2023/12/10 07:05:50;;;;;;;40.28;17.52;;;;;;;4.38;89.48;100114.69;5135005;27;20072;-64
2023/12/10 07:08:16;;;;;;;43.25;14.70;;;;;;;4.14;91.10;100119.09;5134322;27;20106;-64
2023/12/10 07:10:42;;;;;;;42.97;15.70;;;;;;;3.88;91.59;100110.50;5135116;27;20062;-64
2023/12/10 07:13:07;;;;;;;45.30;19.25;;;;;;;3.84;92.93;100130.84;5134617;27;20027;-64
2023/12/10 07:15:33;;;;;;;38.05;15.18;;;;;;;3.81;92.88;100132.84;5135250;27;20043;-65
2023/12/10 07:17:58;;;;;;;40.38;16.73;;;;;;;3.96;92.79;100136.97;5135265;27;20046;-63
2023/12/10 07:20:24;;;;;;;34.20;15.88;;;;;;;3.93;93.40;100134.56;5138183;27;20284;-64
2023/12/10 07:22:50;;;;;;;41.05;18.55;;;;;;;3.64;94.70;100134.03;5139726;27;20345;-63
2023/12/10 07:25:15;;;;;;;44.72;18.27;;;;;;;3.66;94.69;100132.16;5140181;27;20237;-63
2023/12/10 07:27:41;;;;;;;40.20;17.58;;;;;;;3.54;96.00;100130.38;5143919;27;20094;-64
2023/12/10 07:30:07;;;;;;;41.33;18.63;;;;;;;3.44;96.37;100130.19;5138832;27;20047;-64
2023/12/10 07:32:33;;;;;;;41.38;17.10;;;;;;;3.49;96.08;100135.94;5139301;27;20100;-64
2023/12/10 07:34:59;;;;;;;45.05;19.02;;;;;;;3.61;95.49;100136.88;5139151;27;20043;-63
2023/12/10 07:37:24;;;;;;;38.72;16.80;;;;;;;3.33;96.40;100145.81;5139514;27;20270;-64
2023/12/10 07:39:50;;;;;;;38.78;15.75;;;;;;;3.20;96.98;100134.53;5138598;27;20046;-63
2023/12/10 07:42:15;;;;;;;39.58;15.88;;;;;;;3.33;98.07;100132.72;5138766;27;20035;-63
2023/12/10 07:44:41;;;;;;;42.33;18.77;;;;;;;3.16;98.67;100128.66;5138616;27;20031;-63
2023/12/10 07:47:07;;;;;;;40.28;17.00;;;;;;;3.41;97.87;100129.56;5138150;27;20038;-63
2023/12/10 07:49:32;;;;;;;43.88;18.70;;;;;;;3.62;97.20;100135.94;5137490;27;20371;-63
2023/12/10 07:51:58;;;;;;;35.53;14.85;;;;;;;3.74;96.43;100142.06;5138336;27;20035;-64
2023/12/10 07:54:23;;;;;;;42.85;15.43;;;;;;;3.46;96.81;100140.56;5138521;27;20039;-63
2023/12/10 07:56:49;;;;;;;37.65;14.88;;;;;;;3.47;97.63;100147.47;5138749;27;20035;-63
2023/12/10 07:59:14;;;;;;;42.33;16.73;;;;;;;3.60;96.88;100152.69;5138435;27;20332;-64
2023/12/10 08:01:40;;;;;;;37.60;16.63;;;;;;;3.61;96.24;100129.00;5138071;27;20248;-64
2023/12/10 08:04:06;;;;;;;40.03;16.00;;;;;;;3.90;95.47;100157.53;5138054;27;20039;-64
2023/12/10 08:06:32;;;;;;;36.33;16.15;;;;;;;4.06;94.79;100153.72;5137280;27;20023;-63
2023/12/10 08:08:57;;;;;;;39.17;14.68;;;;;;;4.13;93.65;100147.06;5138808;27;20205;-64
2023/12/10 08:11:23;;;;;;;38.55;15.10;;;;;;;4.16;93.12;100153.88;5138470;27;20065;-63
2023/12/10 08:13:51;;;;;;;40.08;16.90;;;;;;;4.25;93.55;100153.25;5139130;27;20053;-63
2023/12/10 08:16:17;;;;;;;32.25;14.82;;;;;;;4.35;92.05;100156.03;5138274;27;20034;-64
2023/12/10 08:18:42;;;;;;;33.55;15.75;;;;;;;4.39;91.18;100155.69;5137616;27;20031;-65
2023/12/10 08:21:08;;;;;;;80.15;53.17;;;;;;;4.51;90.44;100161.81;5138555;27;20023;-63
2023/12/10 08:23:34;;;;;;;38.15;20.10;;;;;;;4.69;90.19;100160.44;5136518;27;20112;-63
2023/12/10 08:26:00;;;;;;;38.00;16.10;;;;;;;4.86;90.09;100160.97;5137188;27;20353;-64
2023/12/10 08:28:25;;;;;;;35.90;16.52;;;;;;;4.74;88.98;100163.56;5140701;27;20058;-64
2023/12/10 08:30:51;;;;;;;37.45;16.92;;;;;;;4.79;90.14;100160.59;5136658;27;20110;-66
2023/12/10 08:33:16;;;;;;;34.78;16.63;;;;;;;4.75;89.57;100167.84;5137128;27;20061;-66
2023/12/10 08:35:42;;;;;;;120.15;54.63;;;;;;;4.80;89.10;100167.50;5137861;27;20393;-66
2023/12/10 08:38:08;;;;;;;39.92;16.00;;;;;;;4.88;87.79;100173.03;5136727;27;20030;-66
2023/12/10 08:40:33;;;;;;;42.50;18.15;;;;;;;4.76;87.84;100174.78;5137298;27;20155;-66
2023/12/10 08:42:59;;;;;;;30.08;16.88;;;;;;;4.87;88.35;100170.50;5136503;27;20062;-66
2023/12/10 08:45:24;;;;;;;32.83;15.07;;;;;;;5.01;87.65;100165.91;5136820;27;20038;-66
2023/12/10 08:47:50;;;;;;;33.20;17.48;;;;;;;5.06;86.72;100168.16;5138146;27;20031;-65
2023/12/10 08:50:15;;;;;;;39.40;18.95;;;;;;;5.14;86.13;100178.91;5136931;27;20039;-66
2023/12/10 08:52:41;;;;;;;32.33;16.85;;;;;;;5.20;86.05;100175.88;5137322;27;20083;-66
2023/12/10 08:55:07;;;;;;;31.85;15.95;;;;;;;5.21;86.12;100174.06;5136479;27;20042;-66
2023/12/10 08:57:32;;;;;;;33.20;15.57;;;;;;;5.25;85.94;100165.84;5137404;27;20329;-66
2023/12/10 09:00:00;;;;;;;29.70;13.05;;;;;;;5.25;85.98;100157.97;5136637;27;20069;-66
2023/12/10 09:02:26;;;;;;;32.72;14.45;;;;;;;5.30;85.67;100155.81;5137380;27;20448;-66
2023/12/10 09:04:52;;;;;;;33.03;14.23;;;;;;;5.42;86.34;100152.25;5136687;27;20337;-66
2023/12/10 09:07:17;;;;;;;32.17;14.32;;;;;;;5.40;86.09;100158.56;5135826;27;20031;-66
2023/12/10 09:09:43;;;;;;;32.17;14.93;;;;;;;5.44;86.31;100157.38;5136669;27;20046;-66
2023/12/10 09:12:09;;;;;;;48.28;25.02;;;;;;;5.44;86.15;100146.88;5137808;27;20046;-66
2023/12/10 09:14:36;;;;;;;55.88;29.55;;;;;;;5.49;86.23;100136.84;5134864;27;20084;-66
2023/12/10 09:17:01;;;;;;;43.33;21.35;;;;;;;5.59;86.44;100134.34;5136409;27;20038;-66
2023/12/10 09:19:29;;;;;;;45.60;23.17;;;;;;;5.66;86.22;100132.88;5137110;27;20378;-66
2023/12/10 09:21:55;;;;;;;36.70;17.98;;;;;;;5.68;85.97;100126.56;5138784;27;20065;-66
2023/12/10 09:24:22;;;;;;;40.90;19.33;;;;;;;5.72;86.00;100125.34;5137002;27;20294;-66
2023/12/10 09:26:48;;;;;;;49.63;22.88;;;;;;;5.81;85.76;100110.66;5135926;27;20046;-66
2023/12/10 09:29:13;;;;;;;43.10;19.45;;;;;;;5.85;85.31;100108.63;5135093;27;20396;-66
2023/12/10 09:31:39;;;;;;;47.00;18.23;;;;;;;5.90;84.60;100103.84;5136019;27;20039;-66
2023/12/10 09:34:04;;;;;;;43.05;18.42;;;;;;;5.97;84.18;100097.97;5136076;27;20035;-66
2023/12/10 09:36:30;;;;;;;46.22;18.67;;;;;;;6.01;85.01;100101.19;5136188;27;20098;-66
2023/12/10 09:38:56;;;;;;;36.67;16.38;;;;;;;5.96;84.30;100098.09;5135615;27;20051;-66
2023/12/10 09:41:21;;;;;;;37.00;16.48;;;;;;;6.01;84.08;100101.19;5135639;27;20031;-66
2023/12/10 09:43:47;;;;;;;35.28;16.85;;;;;;;5.93;83.64;100096.56;5135745;27;20059;-67
2023/12/10 09:46:13;;;;;;;40.35;18.10;;;;;;;6.00;83.81;100081.13;5136198;27;20075;-67
2023/12/10 09:48:43;;;;;;;35.90;16.73;;;;;;;6.03;83.43;100071.19;5135839;27;20035;-67
2023/12/10 09:51:09;;;;;;;36.13;17.63;;;;;;;6.03;83.96;100073.81;5136522;27;20264;-67
2023/12/10 09:53:35;;;;;;;31.10;16.30;;;;;;;6.02;84.04;100069.53;5135672;27;20052;-64
2023/12/10 09:56:01;;;;;;;32.42;15.48;;;;;;;6.05;83.33;100069.28;5137459;27;20135;-66
2023/12/10 09:58:26;;;;;;;35.03;16.80;;;;;;;5.97;83.46;100061.19;5134959;27;20171;-66
2023/12/10 10:00:52;;;;;;;27.83;15.38;;;;;;;5.97;83.50;100061.19;5134204;27;20350;-63
2023/12/10 10:03:19;;;;;;;30.65;15.40;;;;;;;5.83;83.95;100061.44;5135689;27;20123;-66
2023/12/10 10:05:44;;;;;;;31.30;14.48;;;;;;;5.90;84.69;100056.53;5134921;27;20058;-66
2023/12/10 10:08:10;;;;;;;33.92;15.70;;;;;;;5.87;85.18;100049.72;5134398;27;20304;-66
2023/12/10 10:10:35;;;;;;;34.08;15.70;;;;;;;5.90;85.27;100046.03;5135010;27;20103;-66
2023/12/10 10:13:05;;;;;;;37.20;16.52;;;;;;;5.96;84.34;100046.38;5134855;27;20038;-63
2023/12/10 10:15:31;;;;;;;30.63;15.57;;;;;;;5.90;85.04;100044.25;5133871;27;20103;-64
2023/12/10 10:17:57;;;;;;;35.67;15.18;;;;;;;5.96;83.84;100037.66;5134322;27;20332;-64
2023/12/10 10:20:25;;;;;;;33.88;15.13;;;;;;;6.05;83.59;100035.09;5134564;27;20283;-64
2023/12/10 10:22:51;;;;;;;32.75;15.88;;;;;;;6.04;84.57;100043.13;5135166;27;20266;-63
2023/12/10 10:25:20;;;;;;;37.75;16.90;;;;;;;5.99;85.17;100024.25;5134251;27;20035;-66
2023/12/10 10:27:48;;;;;;;34.15;16.85;;;;;;;5.97;84.93;100026.19;5137146;27;20094;-65
2023/12/10 10:30:13;;;;;;;33.33;16.92;;;;;;;5.88;84.00;100019.84;5134737;27;20238;-66
2023/12/10 10:32:40;;;;;;;32.40;15.45;;;;;;;5.76;84.44;100023.47;5134261;27;20053;-63
2023/12/10 10:35:07;;;;;;;33.38;16.23;;;;;;;5.76;84.60;100011.16;5135006;27;20059;-66
2023/12/10 10:37:33;;;;;;;30.13;15.05;;;;;;;5.92;83.54;100012.56;5134637;27;20418;-64
2023/12/10 10:39:59;;;;;;;32.88;16.13;;;;;;;5.80;84.96;100008.28;5135091;27;20112;-64
2023/12/10 10:42:24;;;;;;;36.17;16.02;;;;;;;5.86;85.58;100008.63;5134251;27;20038;-66
2023/12/10 10:44:50;;;;;;;33.33;14.40;;;;;;;5.84;85.75;100005.28;5134970;27;20042;-66
2023/12/10 10:47:19;;;;;;;34.85;14.80;;;;;;;5.99;84.34;100003.22;5134241;27;20028;-65
2023/12/10 10:49:51;;;;;;;38.20;15.30;;;;;;;5.99;83.35;99993.53;5134045;27;20031;-66
2023/12/10 10:52:21;;;;;;;35.00;14.65;;;;;;;5.83;84.59;100008.88;5134400;27;20409;-66
2023/12/10 10:54:48;;;;;;;34.95;16.50;;;;;;;5.61;85.55;99996.66;5138749;27;20069;-65
2023/12/10 10:57:35;;;;;;;28.30;14.07;;;;;;;5.72;86.04;99999.25;5138863;27;20031;-66
2023/12/10 11:00:21;;;;;;;35.47;15.35;;;;;;;5.68;86.39;99992.56;5138119;27;20062;-64
2023/12/10 11:02:56;;;;;;;33.85;15.20;;;;;;;5.67;86.39;99984.81;5138779;27;20107;-63
2023/12/10 11:05:35;;;;;;;38.45;16.88;;;;;;;5.20;86.65;99986.84;5139815;27;20027;-64
2023/12/10 11:08:05;;;;;;;36.88;16.52;;;;;;;5.25;87.77;99984.69;5138786;27;20038;-66
2023/12/10 11:10:32;;;;;;;35.05;14.20;;;;;;;5.44;87.87;99981.41;5135244;27;20039;-64
2023/12/10 11:12:59;;;;;;;39.28;16.50;;;;;;;5.64;87.89;99982.44;5138898;27;20106;-64